Time;durP1;ratioP1;P1;durP2;ratioP2;P2;SDS_P1;SDS_P2;PMS_P1;PMS_P2;Temp;Humidity;BMP_temperature;BMP_pressure;BME280_temperature;BME280_humidity;BME280_pressure;Samples;Min_cycle;Max_cycle;Signal;HPM_P1;HPM_P2
2023/01/13 00:02:22;;;;;;;0.50;0.35;;;;;;;12.64;100.00;99256.50;5028472;28;20417;-68
2023/01/13 00:04:47;;;;;;;1.95;0.50;;;;;;;12.79;100.00;99253.66;5033785;28;20048;-69
2023/01/13 00:07:13;;;;;;;0.40;0.38;;;;;;;12.70;100.00;99257.59;5035446;28;20051;-68
2023/01/13 00:09:38;;;;;;;0.40;0.28;;;;;;;12.65;100.00;99247.25;5033433;28;20044;-68
2023/01/13 00:12:05;;;;;;;0.85;0.50;;;;;;;12.61;100.00;99237.63;5031705;28;20028;-68
2023/01/13 00:14:34;;;;;;;2.83;0.70;;;;;;;12.57;100.00;99248.50;5035713;28;20033;-68
2023/01/13 00:17:01;;;;;;;0.70;0.60;;;;;;;12.64;100.00;99247.63;5035241;28;20045;-69
2023/01/13 00:19:26;;;;;;;0.63;0.60;;;;;;;12.70;100.00;99252.19;5034194;28;20040;-69
2023/01/13 00:21:51;;;;;;;0.40;0.40;;;;;;;12.58;100.00;99249.25;5024032;28;20034;-68
2023/01/13 00:24:17;;;;;;;1.48;0.63;;;;;;;12.64;100.00;99251.09;5031658;28;20381;-68
2023/01/13 00:26:42;;;;;;;1.45;0.52;;;;;;;12.48;100.00;99242.03;5035828;28;20500;-68
2023/01/13 00:29:08;;;;;;;0.40;0.40;;;;;;;12.49;100.00;99265.94;5027812;28;20131;-69
2023/01/13 00:31:34;;;;;;;0.50;0.30;;;;;;;12.54;100.00;99251.97;5031239;28;20045;-69
2023/01/13 00:34:00;;;;;;;0.88;0.50;;;;;;;12.51;100.00;99266.28;5041236;28;20517;-69
2023/01/13 00:36:26;;;;;;;0.43;0.22;;;;;;;12.41;100.00;99260.97;5035516;28;20048;-69
2023/01/13 00:38:51;;;;;;;0.85;0.20;;;;;;;12.41;100.00;99261.75;5013927;28;20037;-69
2023/01/13 00:41:19;;;;;;;1.75;0.40;;;;;;;12.33;100.00;99260.28;5032590;28;20029;-69
2023/01/13 00:43:45;;;;;;;0.20;0.20;;;;;;;12.36;100.00;99262.22;5039461;28;20040;-69
2023/01/13 00:46:13;;;;;;;0.20;0.20;;;;;;;12.43;100.00;99264.06;5017336;28;20736;-69
2023/01/13 00:48:39;;;;;;;0.90;0.40;;;;;;;12.33;100.00;99264.94;5039621;28;20027;-69
2023/01/13 00:51:08;;;;;;;1.85;0.50;;;;;;;12.05;100.00;99262.47;5035888;28;20108;-70
2023/01/13 00:53:39;;;;;;;0.98;0.30;;;;;;;12.02;100.00;99266.00;5034504;28;20485;-69
2023/01/13 00:56:16;;;;;;;0.17;0.13;;;;;;;11.94;100.00;99265.28;5019241;28;20213;-70
2023/01/13 00:58:43;;;;;;;0.80;0.30;;;;;;;11.98;100.00;99266.00;5015483;28;20508;-69
2023/01/13 01:01:12;;;;;;;0.52;0.28;;;;;;;11.84;100.00;99279.63;5026760;28;20049;-70
2023/01/13 01:03:38;;;;;;;1.27;0.47;;;;;;;11.74;100.00;99269.66;5029764;28;20034;-69
2023/01/13 01:06:07;;;;;;;1.20;0.30;;;;;;;11.71;100.00;99279.31;5035900;28;20032;-69
2023/01/13 01:08:33;;;;;;;0.40;0.20;;;;;;;11.55;100.00;99272.84;5031352;28;20113;-70
2023/01/13 01:11:05;;;;;;;0.20;0.20;;;;;;;11.64;100.00;99281.25;5022302;28;20091;-69
2023/01/13 01:13:30;;;;;;;2.83;1.00;;;;;;;11.76;100.00;99267.34;5038465;28;20083;-69
2023/01/13 01:15:56;;;;;;;0.80;0.28;;;;;;;11.76;100.00;99273.50;5022350;28;20033;-67
2023/01/13 01:18:21;;;;;;;0.60;0.22;;;;;;;11.88;100.00;99266.88;5028603;28;20695;-68
2023/01/13 01:20:47;;;;;;;0.30;0.30;;;;;;;11.80;100.00;99241.13;5033619;28;20049;-70
2023/01/13 01:23:12;;;;;;;0.63;0.35;;;;;;;11.81;100.00;99255.38;5035157;28;20052;-69
2023/01/13 01:25:37;;;;;;;0.22;0.22;;;;;;;11.86;100.00;99263.81;5011789;28;20038;-70
2023/01/13 01:28:03;;;;;;;1.95;0.43;;;;;;;11.85;100.00;99259.56;5031898;28;20029;-69
2023/01/13 01:30:28;;;;;;;4.75;0.73;;;;;;;11.92;100.00;99267.63;5035242;28;20065;-69
2023/01/13 01:32:56;;;;;;;0.85;0.20;;;;;;;11.87;100.00;99265.31;5034119;28;20029;-71
2023/01/13 01:35:22;;;;;;;0.32;0.32;;;;;;;11.86;100.00;99268.41;5040416;28;20108;-69
2023/01/13 01:37:48;;;;;;;1.85;0.60;;;;;;;11.81;99.51;99258.06;5026853;28;20057;-69
2023/01/13 01:40:14;;;;;;;0.95;0.43;;;;;;;11.76;99.63;99272.72;5035402;28;20532;-69
2023/01/13 01:45:26;;;;;;;2.45;0.95;;;;;;;11.74;99.31;99259.66;5038193;28;20481;-69
2023/01/13 01:47:56;;;;;;;1.60;0.40;;;;;;;11.65;99.87;99266.63;5026407;28;20025;-69
2023/01/13 01:50:22;;;;;;;0.55;0.40;;;;;;;11.53;99.66;99269.78;5024122;28;20108;-69
2023/01/13 01:52:56;;;;;;;0.82;0.50;;;;;;;11.61;99.71;99268.56;5015545;28;20116;-69
2023/01/13 01:55:32;;;;;;;3.83;0.68;;;;;;;11.64;99.70;99284.72;5024362;28;20033;-68
2023/01/13 01:58:04;;;;;;;0.38;0.35;;;;;;;11.63;99.51;99288.56;5021242;28;20060;-69
2023/01/13 02:00:30;;;;;;;0.60;0.50;;;;;;;11.69;99.39;99281.63;5028538;28;20554;-69
2023/01/13 02:02:56;;;;;;;1.05;0.45;;;;;;;11.67;98.74;99283.22;5027838;28;20041;-69
2023/01/13 02:05:22;;;;;;;0.98;0.57;;;;;;;11.61;98.36;99280.09;5012569;28;20108;-69
2023/01/13 02:07:50;;;;;;;0.98;0.60;;;;;;;11.61;99.18;99274.72;5036558;28;20128;-68
2023/01/13 02:10:26;;;;;;;0.60;0.60;;;;;;;11.54;98.57;99276.69;5035846;28;20052;-69
2023/01/13 02:12:54;;;;;;;4.93;0.73;;;;;;;11.56;99.05;99271.66;5021597;28;20473;-70
2023/01/13 02:15:59;;;;;;;2.50;0.40;;;;;;;11.51;99.22;99262.09;5024805;28;20033;-68
2023/01/13 02:18:31;;;;;;;0.82;0.30;;;;;;;11.46;99.24;99277.88;5029117;28;20060;-70
2023/01/13 02:21:08;;;;;;;1.73;0.38;;;;;;;11.50;98.50;99278.63;5033792;28;20037;-69
2023/01/13 02:26:47;;;;;;;0.73;0.60;;;;;;;11.49;98.60;99282.50;5025181;28;20123;-70
2023/01/13 02:33:11;;;;;;;2.95;0.98;;;;;;;11.36;98.16;99265.25;4946463;28;20058;-68
2023/01/13 02:35:42;;;;;;;2.70;1.23;;;;;;;11.15;98.76;99278.84;4950730;28;20058;-69
2023/01/13 02:38:12;;;;;;;3.28;0.80;;;;;;;11.19;98.84;99274.22;4988334;28;20041;-68
2023/01/13 02:40:58;;;;;;;2.40;0.95;;;;;;;11.14;98.87;99283.47;5030818;28;20082;-70
2023/01/13 02:46:44;;;;;;;3.45;0.77;;;;;;;11.23;98.67;99294.56;5031937;28;20445;-68
2023/01/13 02:49:17;;;;;;;3.15;1.00;;;;;;;11.16;98.97;99296.53;5029985;28;20052;-68
2023/01/13 02:51:45;;;;;;;2.55;0.65;;;;;;;11.23;98.64;99291.88;5036853;28;20085;-68
2023/01/13 02:54:23;;;;;;;1.25;0.85;;;;;;;11.21;98.57;99285.34;5026511;28;20029;-68
2023/01/13 02:56:52;;;;;;;2.10;0.63;;;;;;;11.21;98.82;99279.94;5026865;28;20473;-68
2023/01/13 02:59:19;;;;;;;1.90;0.80;;;;;;;11.27;98.17;99281.84;5031021;28;20648;-68
2023/01/13 03:01:46;;;;;;;5.68;1.00;;;;;;;11.24;98.04;99277.25;5026531;28;20033;-68
2023/01/13 03:04:51;;;;;;;2.05;0.82;;;;;;;11.23;97.69;99270.31;5030759;28;20444;-68
2023/01/13 03:07:26;;;;;;;6.00;1.17;;;;;;;11.26;97.86;99274.94;5032384;28;20060;-68
2023/01/13 03:10:01;;;;;;;4.30;0.95;;;;;;;11.23;98.23;99280.31;5026864;28;20037;-68
2023/01/13 03:12:40;;;;;;;0.70;0.70;;;;;;;11.34;97.45;99281.06;5029546;28;20486;-68
2023/01/13 03:15:24;;;;;;;5.05;1.58;;;;;;;11.33;97.54;99282.22;5027142;28;20080;-70
2023/01/13 03:17:59;;;;;;;3.05;0.55;;;;;;;11.30;97.37;99291.09;5029170;28;20071;-68
2023/01/13 03:20:30;;;;;;;2.83;0.60;;;;;;;11.27;97.25;99295.31;5030175;28;20064;-68
2023/01/13 03:23:17;;;;;;;1.20;0.70;;;;;;;11.30;96.83;99285.69;5022463;28;20021;-67
2023/01/13 03:25:52;;;;;;;6.85;0.82;;;;;;;11.07;97.61;99302.34;5008660;28;20049;-68
2023/01/13 03:28:32;;;;;;;5.18;1.02;;;;;;;10.99;98.26;99310.84;5031714;28;20445;-67
2023/01/13 03:31:06;;;;;;;4.32;2.25;;;;;;;11.11;98.05;99302.34;5033425;28;20493;-67
2023/01/13 03:34:08;;;;;;;5.63;0.93;;;;;;;11.19;97.50;99296.50;5033604;28;20034;-67
2023/01/13 03:36:37;;;;;;;2.22;0.80;;;;;;;11.22;97.45;99305.75;5011823;28;20069;-68
2023/01/13 03:39:11;;;;;;;4.47;0.88;;;;;;;11.20;96.88;99308.06;5018905;28;20044;-69
2023/01/13 03:41:59;;;;;;;4.47;0.65;;;;;;;11.21;96.74;99318.44;5031336;28;20409;-68
2023/01/13 03:44:31;;;;;;;2.28;0.43;;;;;;;11.05;96.49;99320.06;5019821;28;20450;-68
2023/01/13 03:47:40;;;;;;;5.72;1.05;;;;;;;11.05;95.77;99318.16;5029036;28;20059;-69
2023/01/13 03:50:09;;;;;;;9.52;1.73;;;;;;;10.98;95.90;99328.94;4950828;28;20047;-68
2023/01/13 03:52:45;;;;;;;8.25;1.48;;;;;;;11.03;95.52;99325.84;4945304;28;20484;-68
2023/01/13 03:55:17;;;;;;;1.13;0.68;;;;;;;11.07;95.26;99331.22;4947628;28;20128;-68
2023/01/13 03:57:55;;;;;;;3.90;0.73;;;;;;;11.02;95.15;99340.47;4923621;28;20508;-68
2023/01/13 04:00:27;;;;;;;7.28;0.80;;;;;;;10.97;94.48;99323.94;4937658;28;20569;-67
2023/01/13 04:03:25;;;;;;;1.30;0.93;;;;;;;10.97;94.89;99338.19;4944740;28;20663;-67
2023/01/13 04:05:59;;;;;;;12.48;2.05;;;;;;;10.94;94.49;99322.78;4945248;28;20047;-67
2023/01/13 04:08:27;;;;;;;3.95;1.02;;;;;;;10.95;94.16;99318.16;4931090;29;20078;-69
2023/01/13 04:11:11;;;;;;;3.83;0.93;;;;;;;10.96;94.26;99298.91;4931926;29;20035;-67
2023/01/13 04:13:39;;;;;;;3.72;1.02;;;;;;;10.95;93.74;99318.16;4943631;28;20160;-67
2023/01/13 04:16:07;;;;;;;1.02;0.65;;;;;;;10.90;93.98;99300.47;4940875;28;20527;-67
2023/01/13 04:18:37;;;;;;;4.72;1.20;;;;;;;10.87;93.71;99303.97;4948326;29;20039;-67
2023/01/13 04:21:03;;;;;;;3.97;1.15;;;;;;;10.87;93.55;99307.44;4979623;28;20058;-68
2023/01/13 04:23:29;;;;;;;3.15;0.68;;;;;;;10.77;93.60;99313.59;5024521;28;20045;-68
2023/01/13 04:25:55;;;;;;;5.95;0.63;;;;;;;10.82;94.05;99304.34;5032552;28;20217;-68
2023/01/13 04:28:21;;;;;;;3.40;0.80;;;;;;;10.65;93.53;99305.94;5022670;28;20124;-67
2023/01/13 04:30:47;;;;;;;2.05;0.88;;;;;;;10.68;93.97;99305.16;5020191;28;20025;-67
2023/01/13 04:33:14;;;;;;;6.88;1.23;;;;;;;10.64;93.52;99296.34;5047390;28;20112;-67
2023/01/13 04:35:40;;;;;;;5.93;1.02;;;;;;;10.71;93.02;99296.31;5042389;28;20121;-68
2023/01/13 04:38:11;;;;;;;11.20;1.70;;;;;;;10.67;93.50;99305.53;5034952;28;20124;-68
2023/01/13 04:40:38;;;;;;;5.97;1.50;;;;;;;10.61;93.06;99305.16;5029841;28;20600;-68
2023/01/13 04:43:03;;;;;;;2.53;1.20;;;;;;;10.62;93.34;99317.50;5018726;28;20025;-68
2023/01/13 04:45:29;;;;;;;6.93;1.27;;;;;;;10.54;93.66;99310.56;5035500;28;20486;-67
2023/01/13 04:47:55;;;;;;;5.90;0.95;;;;;;;10.40;94.22;99310.59;5033851;28;20435;-68
2023/01/13 04:50:21;;;;;;;2.08;1.10;;;;;;;10.41;94.10;99314.84;5034592;28;20112;-69
2023/01/13 04:52:48;;;;;;;9.05;1.42;;;;;;;10.50;93.92;99317.88;5041137;22;20347;-69
2023/01/13 04:55:14;;;;;;;2.70;0.68;;;;;;;10.51;93.82;99310.59;5025142;28;20043;-69
2023/01/13 04:57:40;;;;;;;7.82;1.33;;;;;;;10.42;93.66;99310.97;5033911;28;20025;-69
2023/01/13 05:00:06;;;;;;;7.65;0.88;;;;;;;10.42;93.95;99312.88;5015622;28;20477;-69
2023/01/13 05:02:32;;;;;;;2.38;0.55;;;;;;;10.46;93.69;99314.44;5025831;28;20401;-69
2023/01/13 05:04:58;;;;;;;8.00;1.67;;;;;;;10.41;93.55;99309.44;5013646;28;20036;-70
2023/01/13 05:07:24;;;;;;;3.00;1.10;;;;;;;10.37;93.52;99314.06;4997979;28;20437;-69
2023/01/13 05:09:49;;;;;;;5.53;1.48;;;;;;;10.26;93.87;99315.22;4996626;28;20445;-70
2023/01/13 05:17:43;;;;;;;4.75;0.60;;;;;;;10.40;94.05;99315.97;5014032;28;20038;-69
2023/01/13 05:20:11;;;;;;;3.92;1.27;;;;;;;10.39;93.96;99316.38;5020500;28;20029;-69
2023/01/13 05:25:21;;;;;;;3.00;0.73;;;;;;;10.19;95.52;99301.75;5019533;28;20109;-69
2023/01/13 05:27:52;;;;;;;3.53;0.70;;;;;;;10.18;95.12;99297.53;5014457;28;20509;-69
2023/01/13 05:30:19;;;;;;;2.85;0.60;;;;;;;10.24;94.18;99286.00;5013469;28;20391;-69
2023/01/13 05:32:44;;;;;;;4.75;1.13;;;;;;;10.28;93.89;99289.44;5024961;28;20108;-69
2023/01/13 05:35:09;;;;;;;3.35;0.70;;;;;;;10.36;93.89;99292.91;5028287;28;20136;-69
2023/01/13 05:37:35;;;;;;;3.75;0.70;;;;;;;10.31;93.96;99296.00;5030294;28;20041;-69
2023/01/13 05:45:30;;;;;;;5.45;2.10;;;;;;;10.29;92.59;99288.31;5026669;28;20030;-69
2023/01/13 05:47:56;;;;;;;3.33;1.10;;;;;;;10.10;92.74;99307.53;5032097;28;20055;-69
2023/01/13 05:50:22;;;;;;;4.22;1.00;;;;;;;10.06;92.70;99311.34;5025289;28;20074;-69
2023/01/13 05:52:47;;;;;;;5.88;2.05;;;;;;;10.13;92.89;99306.75;5029420;28;20045;-70
2023/01/13 05:55:13;;;;;;;5.32;1.30;;;;;;;10.07;93.15;99302.88;5032010;28;20056;-69
2023/01/13 05:57:39;;;;;;;6.18;1.50;;;;;;;10.21;92.34;99311.00;5027422;28;20036;-69
2023/01/13 06:00:06;;;;;;;8.98;2.00;;;;;;;10.18;92.65;99302.94;5029403;28;20067;-69
2023/01/13 06:02:37;;;;;;;1.02;0.93;;;;;;;10.19;92.50;99315.22;5025688;28;20034;-69
2023/01/13 06:05:02;;;;;;;7.78;0.98;;;;;;;10.31;92.34;99310.22;5030295;28;20410;-69
2023/01/13 06:07:28;;;;;;;9.60;1.02;;;;;;;10.27;92.60;99300.59;4996245;28;20057;-69
2023/01/13 06:09:53;;;;;;;2.95;0.95;;;;;;;10.23;92.03;99308.69;5008671;28;20374;-70
2023/01/13 06:12:19;;;;;;;4.45;1.38;;;;;;;10.30;91.89;99299.84;5025342;28;20025;-69
2023/01/13 06:14:44;;;;;;;3.88;0.82;;;;;;;10.17;92.20;99299.47;5024086;28;20025;-69
2023/01/13 06:17:12;;;;;;;5.32;1.52;;;;;;;10.23;91.27;99308.69;5030362;28;20053;-70
2023/01/13 06:19:38;;;;;;;2.25;1.30;;;;;;;10.18;91.76;99287.53;5003990;28;20037;-69
2023/01/13 06:22:24;;;;;;;2.95;1.08;;;;;;;10.23;91.87;99295.22;4984301;28;20029;-69
2023/01/13 06:24:52;;;;;;;8.02;1.88;;;;;;;10.27;91.23;99293.31;5017812;28;20597;-69
2023/01/13 06:27:18;;;;;;;3.40;1.40;;;;;;;10.16;91.22;99284.50;5013035;28;20048;-69
2023/01/13 06:29:43;;;;;;;3.45;0.93;;;;;;;9.94;92.14;99304.44;5014161;28;20034;-69
2023/01/13 06:32:33;;;;;;;6.72;1.08;;;;;;;10.08;92.18;99290.22;5016028;28;20036;-69
2023/01/13 06:35:04;;;;;;;2.50;0.85;;;;;;;10.08;92.28;99293.69;5010304;28;20048;-70
2023/01/13 06:37:31;;;;;;;8.07;1.33;;;;;;;10.09;91.62;99300.59;5017093;28;20525;-70
2023/01/13 06:40:00;;;;;;;6.05;0.95;;;;;;;9.95;92.09;99290.59;5013786;28;20044;-70
2023/01/13 06:45:16;;;;;;;9.38;1.55;;;;;;;10.02;92.14;99292.53;5018658;28;20865;-70
2023/01/13 06:47:42;;;;;;;6.30;1.27;;;;;;;10.07;91.98;99285.97;5019390;28;20026;-70
2023/01/13 06:50:09;;;;;;;5.88;1.70;;;;;;;10.00;92.11;99294.81;5021567;28;20075;-70
2023/01/13 06:52:34;;;;;;;7.53;1.33;;;;;;;10.07;91.64;99288.66;5002262;28;20053;-70
2023/01/13 06:55:00;;;;;;;4.82;1.40;;;;;;;10.08;91.84;99290.22;5005051;28;20458;-69
2023/01/13 06:57:25;;;;;;;8.40;1.83;;;;;;;10.15;91.96;99288.31;5021996;28;20075;-70
2023/01/13 06:59:53;;;;;;;6.78;1.42;;;;;;;10.12;92.06;99291.78;5021010;28;20033;-70
2023/01/13 07:02:18;;;;;;;8.35;1.42;;;;;;;10.27;91.35;99295.22;5009593;28;20042;-70
2023/01/13 07:04:45;;;;;;;10.10;1.20;;;;;;;10.35;91.05;99292.16;5028581;28;20079;-70
2023/01/13 07:07:12;;;;;;;6.72;0.82;;;;;;;10.36;90.79;99288.28;4991729;28;20037;-70
2023/01/13 07:09:38;;;;;;;2.72;1.48;;;;;;;10.33;90.12;99299.84;5013053;28;20033;-70
2023/01/13 07:12:04;;;;;;;5.68;1.25;;;;;;;10.34;90.67;99293.28;5024455;28;20030;-70
2023/01/13 07:17:13;;;;;;;2.42;1.42;;;;;;;10.19;90.67;99301.75;4993669;28;20088;-71
2023/01/13 07:19:38;;;;;;;6.65;1.02;;;;;;;10.16;90.21;99306.00;5011973;28;20026;-70
2023/01/13 07:22:04;;;;;;;8.20;1.67;;;;;;;10.28;89.95;99296.78;5007884;28;20106;-70
2023/01/13 07:24:29;;;;;;;6.15;1.48;;;;;;;10.26;90.80;99302.53;5001960;28;20029;-70
2023/01/13 07:26:55;;;;;;;6.90;1.48;;;;;;;10.31;90.05;99301.38;5017491;28;20038;-70
2023/01/13 07:29:20;;;;;;;5.47;1.52;;;;;;;10.28;89.86;99305.59;5024149;28;20470;-70
2023/01/13 07:31:46;;;;;;;9.75;1.67;;;;;;;10.24;89.85;99296.75;5024196;28;20048;-70
2023/01/13 07:34:12;;;;;;;4.30;0.82;;;;;;;10.40;89.52;99307.91;5007506;28;20466;-70
2023/01/13 07:36:38;;;;;;;9.43;2.00;;;;;;;10.36;89.02;99304.44;5023026;28;20052;-71
2023/01/13 07:39:04;;;;;;;12.13;1.75;;;;;;;10.41;88.79;99314.06;4999695;28;20095;-71
2023/01/13 07:44:13;;;;;;;7.50;2.22;;;;;;;10.31;88.57;99302.16;5007718;28;20038;-70
2023/01/13 07:46:39;;;;;;;6.32;1.50;;;;;;;10.33;88.57;99310.59;5008427;28;20115;-70
2023/01/13 07:49:05;;;;;;;4.53;1.27;;;;;;;10.31;89.36;99307.53;5018434;28;20032;-71
2023/01/13 07:51:33;;;;;;;6.32;1.90;;;;;;;10.28;89.42;99307.53;5030028;28;20053;-70
2023/01/13 07:53:59;;;;;;;8.32;1.52;;;;;;;10.28;88.70;99297.53;5023229;28;20037;-70
2023/01/13 07:56:24;;;;;;;5.88;1.50;;;;;;;10.25;88.88;99298.31;5027143;28;20514;-70
2023/01/13 07:58:51;;;;;;;9.60;2.35;;;;;;;10.25;89.21;99297.53;5009434;28;20116;-70
2023/01/13 08:01:17;;;;;;;10.60;2.33;;;;;;;10.33;88.53;99304.44;5018797;28;20029;-70
2023/01/13 08:03:43;;;;;;;7.20;2.25;;;;;;;10.36;88.69;99303.66;5026456;28;20029;-70
2023/01/13 08:06:10;;;;;;;2.25;1.35;;;;;;;10.35;88.77;99294.84;5017660;28;20045;-70
2023/01/13 08:08:37;;;;;;;4.32;1.05;;;;;;;10.48;88.30;99295.97;5008937;28;20049;-71
2023/01/13 08:11:05;;;;;;;9.38;1.38;;;;;;;10.38;88.39;99294.06;5024408;28;20453;-69
2023/01/13 08:13:31;;;;;;;0.98;0.68;;;;;;;10.46;88.02;99295.59;5015785;28;20062;-69
2023/01/13 08:16:05;;;;;;;14.20;2.17;;;;;;;10.40;88.30;99294.44;5023122;28;20409;-70
2023/01/13 08:18:32;;;;;;;5.60;1.02;;;;;;;10.29;88.11;99292.91;5026365;28;20121;-70
2023/01/13 08:21:01;;;;;;;2.95;0.80;;;;;;;10.33;88.98;99299.06;5027271;28;20761;-70
2023/01/13 08:23:27;;;;;;;1.85;0.80;;;;;;;10.31;88.57;99291.38;5026728;28;20051;-70
2023/01/13 08:25:52;;;;;;;4.90;1.30;;;;;;;10.41;89.93;99295.22;5017507;28;20042;-70
2023/01/13 08:28:18;;;;;;;8.35;1.38;;;;;;;10.41;88.95;99290.63;5015566;28;20087;-70
2023/01/13 08:30:43;;;;;;;3.42;1.50;;;;;;;10.53;87.80;99292.13;5023013;28;20489;-70
2023/01/13 08:33:10;;;;;;;13.73;1.42;;;;;;;10.53;87.73;99295.56;5024729;28;20018;-70
2023/01/13 08:35:37;;;;;;;3.03;1.27;;;;;;;10.45;88.06;99299.41;5011847;28;20049;-70
2023/01/13 08:38:03;;;;;;;3.45;0.95;;;;;;;10.54;87.08;99297.13;5011833;28;20582;-70
2023/01/13 08:40:29;;;;;;;3.60;1.23;;;;;;;10.65;87.23;99297.84;5006086;28;20428;-70
2023/01/13 08:42:56;;;;;;;7.55;2.33;;;;;;;10.72;86.60;99302.47;5012674;28;20044;-70
2023/01/13 08:45:21;;;;;;;3.58;1.17;;;;;;;10.74;85.91;99292.81;5016116;28;20417;-70
2023/01/13 08:47:47;;;;;;;3.70;0.68;;;;;;;10.90;85.79;99298.56;5019746;28;20522;-70
2023/01/13 08:50:13;;;;;;;8.15;0.70;;;;;;;11.02;85.47;99307.34;5015100;28;20076;-70
2023/01/13 08:52:38;;;;;;;12.35;1.20;;;;;;;10.82;84.83;99301.66;5014050;28;20503;-70
2023/01/13 08:55:05;;;;;;;8.65;1.35;;;;;;;10.76;84.20;99303.22;5019311;28;20501;-70
2023/01/13 08:57:30;;;;;;;10.63;1.60;;;;;;;10.62;84.36;99304.03;5021003;28;20112;-70
2023/01/13 08:59:56;;;;;;;8.02;1.15;;;;;;;10.54;85.33;99299.81;5017770;28;20108;-70
2023/01/13 09:02:22;;;;;;;6.28;1.25;;;;;;;10.67;84.71;99297.47;5014019;28;20043;-70
2023/01/13 09:04:49;;;;;;;2.83;0.95;;;;;;;10.62;84.18;99295.97;5017509;28;20038;-70
2023/01/13 09:07:15;;;;;;;8.20;1.38;;;;;;;10.66;84.28;99296.72;5013124;28;20032;-69
2023/01/13 09:09:41;;;;;;;3.53;1.15;;;;;;;10.71;84.56;99299.00;5014251;28;20033;-70
2023/01/13 09:14:54;;;;;;;7.63;1.30;;;;;;;10.80;83.68;99304.00;5011293;28;20536;-69
2023/01/13 09:17:21;;;;;;;6.32;0.77;;;;;;;10.85;83.84;99309.75;5018899;28;20030;-69
2023/01/13 09:19:47;;;;;;;3.28;1.27;;;;;;;10.82;84.46;99282.81;5023959;28;20055;-69
2023/01/13 09:22:15;;;;;;;7.43;0.93;;;;;;;10.94;83.57;99303.19;5024603;28;20060;-70
2023/01/13 09:24:40;;;;;;;6.00;1.00;;;;;;;10.67;83.24;99289.38;5031171;28;20128;-70
2023/01/13 09:27:08;;;;;;;8.25;1.65;;;;;;;10.70;83.62;99294.75;5028027;28;20112;-70
2023/01/13 09:29:33;;;;;;;3.47;0.98;;;;;;;10.69;83.37;99305.91;5003845;28;20036;-70
2023/01/13 09:31:59;;;;;;;5.75;0.68;;;;;;;10.73;82.51;99295.91;5027886;28;20481;-70
2023/01/13 09:37:09;;;;;;;0.77;0.68;;;;;;;10.89;82.07;99299.72;5021079;28;20631;-69
2023/01/13 09:39:35;;;;;;;3.90;1.00;;;;;;;11.03;81.67;99307.00;5019090;28;20117;-69
2023/01/13 09:45:26;;;;;;;1.67;0.90;;;;;;;11.09;80.34;99305.41;5014354;28;20038;-69
2023/01/13 09:48:11;;;;;;;1.23;0.50;;;;;;;11.01;79.65;99306.63;5003645;28;20379;-69
2023/01/13 09:51:11;;;;;;;2.25;0.80;;;;;;;10.95;80.40;99297.41;5016670;28;20437;-68
2023/01/13 09:53:49;;;;;;;7.77;0.77;;;;;;;10.97;79.50;99302.38;5012630;28;20081;-68
2023/01/13 09:56:15;;;;;;;8.45;1.17;;;;;;;11.14;79.41;99291.53;5026312;28;20033;-69
2023/01/13 09:58:41;;;;;;;1.50;0.50;;;;;;;11.28;78.90;99306.88;4999443;28;20036;-69
2023/01/13 10:01:33;;;;;;;7.35;0.93;;;;;;;11.28;78.18;99279.94;5014768;28;20525;-69
2023/01/13 10:04:07;;;;;;;1.90;0.70;;;;;;;11.29;78.64;99276.84;5016061;28;20418;-69
2023/01/13 10:06:34;;;;;;;4.65;0.82;;;;;;;11.40;77.91;99276.78;5015345;28;20073;-69
2023/01/13 10:08:59;;;;;;;3.35;0.63;;;;;;;11.40;77.56;99279.50;5010741;28;20049;-69
2023/01/13 10:14:21;;;;;;;2.03;0.70;;;;;;;11.37;76.56;99274.88;5021481;28;20538;-70
2023/01/13 10:17:06;;;;;;;4.40;0.60;;;;;;;11.04;76.82;99280.81;5005797;28;20285;-69
2023/01/13 10:19:43;;;;;;;1.05;0.55;;;;;;;11.22;76.80;99293.06;4995323;28;20034;-69
2023/01/13 10:22:25;;;;;;;4.47;1.17;;;;;;;11.33;76.74;99277.59;5013938;28;20136;-69
2023/01/13 10:24:51;;;;;;;6.70;0.95;;;;;;;11.37;77.39;99288.34;5009602;28;20056;-68
2023/01/13 10:27:22;;;;;;;4.28;0.70;;;;;;;11.27;77.30;99278.38;5011235;28;20117;-69
2023/01/13 10:29:47;;;;;;;;;;;;;;;11.27;77.16;99289.16;5021637;28;20043;-68
2023/01/13 10:32:13;;;;;;;8.88;1.27;;;;;;;11.37;77.31;99289.13;5008743;28;20360;-69
2023/01/13 10:34:50;;;;;;;4.55;0.57;;;;;;;11.36;76.51;99287.56;5004722;28;20568;-69
2023/01/13 10:37:21;;;;;;;3.53;0.52;;;;;;;11.30;77.38;99278.38;5019516;28;20029;-69
2023/01/13 10:39:48;;;;;;;1.95;0.60;;;;;;;11.38;77.47;99277.16;5022004;28;20064;-68
2023/01/13 10:42:16;;;;;;;2.65;0.50;;;;;;;11.30;77.48;99280.31;5018539;28;20056;-69
2023/01/13 10:44:47;;;;;;;6.05;0.98;;;;;;;11.20;77.33;99291.91;5015901;28;20042;-68
2023/01/13 10:47:20;;;;;;;2.05;0.60;;;;;;;11.16;77.83;99280.38;5013959;28;20410;-68
2023/01/13 10:50:01;;;;;;;2.78;0.60;;;;;;;11.26;77.50;99276.88;5006744;28;20175;-68
2023/01/13 10:52:29;;;;;;;4.57;0.73;;;;;;;11.39;76.93;99278.72;5005751;28;20026;-69
2023/01/13 10:54:55;;;;;;;2.72;0.57;;;;;;;11.30;76.85;99285.69;5027607;23;20321;-67
2023/01/13 10:57:23;;;;;;;1.48;0.50;;;;;;;11.34;77.60;99267.59;5008267;28;20034;-65
2023/01/13 10:59:50;;;;;;;0.93;0.60;;;;;;;11.24;76.91;99281.88;5008974;28;20467;-66
2023/01/13 11:02:15;;;;;;;3.05;0.85;;;;;;;11.37;77.31;99291.03;5000366;28;20030;-66
2023/01/13 11:04:53;;;;;;;4.00;0.52;;;;;;;11.42;76.79;99282.56;4989187;28;20030;-67
2023/01/13 11:07:37;;;;;;;3.72;0.70;;;;;;;11.43;75.88;99281.38;4984441;28;20390;-67
2023/01/13 11:10:32;;;;;;;4.13;1.08;;;;;;;11.35;76.19;99293.38;4983199;28;20548;-66
2023/01/13 11:13:21;;;;;;;5.25;0.90;;;;;;;11.27;77.49;99298.03;4992361;28;20068;-67
2023/01/13 11:15:59;;;;;;;7.75;1.00;;;;;;;11.28;77.83;99309.56;4986417;28;20050;-67
2023/01/13 11:18:34;;;;;;;3.03;1.15;;;;;;;11.03;79.76;99303.53;4983878;28;20045;-67
2023/01/13 11:21:06;;;;;;;4.05;0.75;;;;;;;11.07;80.75;99310.41;4980808;28;20593;-66
2023/01/13 11:23:41;;;;;;;2.15;0.82;;;;;;;10.99;82.02;99314.31;4985120;28;20105;-67
2023/01/13 11:26:15;;;;;;;1.30;0.82;;;;;;;11.14;81.68;99301.53;4971574;28;20125;-66
2023/01/13 11:28:51;;;;;;;0.47;0.45;;;;;;;11.22;81.46;99278.81;4981887;28;20046;-67
2023/01/13 11:31:26;;;;;;;1.52;0.88;;;;;;;11.08;82.26;99313.88;4990391;28;20033;-67
2023/01/13 11:34:16;;;;;;;3.05;1.05;;;;;;;11.15;81.86;99305.78;4987706;28;20062;-67
2023/01/13 11:36:51;;;;;;;1.63;0.85;;;;;;;11.16;82.45;99315.41;4984732;28;20038;-68
2023/01/13 11:39:39;;;;;;;2.75;1.08;;;;;;;11.07;83.75;99318.50;4976638;28;20078;-66
2023/01/13 11:42:20;;;;;;;3.45;0.75;;;;;;;11.01;84.50;99322.00;4970936;28;20149;-67
2023/01/13 11:44:56;;;;;;;1.13;0.50;;;;;;;11.10;83.98;99327.72;4984018;28;20108;-67
2023/01/13 11:47:25;;;;;;;3.17;0.52;;;;;;;11.06;84.55;99308.91;4985663;28;21771;-65
2023/01/13 11:49:50;;;;;;;2.20;0.63;;;;;;;11.18;84.94;99318.47;4962355;28;20141;-67
2023/01/13 11:52:26;;;;;;;6.15;1.45;;;;;;;11.15;85.56;99314.63;4988083;28;20483;-66
2023/01/13 11:55:24;;;;;;;0.75;0.60;;;;;;;11.20;85.28;99308.06;4987505;28;20124;-67
2023/01/13 11:58:12;;;;;;;0.55;0.47;;;;;;;11.07;84.73;99307.72;4986549;28;20093;-67
2023/01/13 12:00:53;;;;;;;5.20;0.75;;;;;;;11.23;84.12;99308.06;4987222;28;20042;-67
2023/01/13 12:03:40;;;;;;;3.97;0.85;;;;;;;11.22;84.11;99305.75;4985207;28;20406;-66
2023/01/13 12:06:33;;;;;;;3.55;0.80;;;;;;;11.23;84.29;99308.06;4989510;28;20044;-66
2023/01/13 12:09:17;;;;;;;3.33;0.93;;;;;;;11.19;84.31;99310.00;4992320;28;20088;-65
2023/01/13 12:12:21;;;;;;;4.03;0.82;;;;;;;11.17;84.75;99306.91;4985032;28;20406;-66
2023/01/13 12:14:59;;;;;;;2.78;1.00;;;;;;;11.28;84.36;99298.78;5003226;28;20038;-67
2023/01/13 12:17:29;;;;;;;3.90;0.60;;;;;;;11.21;85.32;99293.41;4987399;28;20038;-67
2023/01/13 12:19:55;;;;;;;2.90;0.90;;;;;;;11.05;85.53;99301.22;4988814;28;20034;-67
2023/01/13 12:22:26;;;;;;;1.23;0.65;;;;;;;11.19;86.23;99309.25;4984703;28;20036;-67
2023/01/13 12:25:50;;;;;;;0.85;0.52;;;;;;;11.21;86.33;99298.81;4986523;28;20069;-67
2023/01/13 12:28:23;;;;;;;0.77;0.75;;;;;;;11.18;86.56;99302.31;4972346;28;20538;-67
2023/01/13 12:30:53;;;;;;;5.60;0.73;;;;;;;11.15;86.35;99290.38;4989632;28;20030;-67
2023/01/13 12:33:32;;;;;;;8.95;1.83;;;;;;;10.85;88.25;99314.34;4990053;28;20030;-66
2023/01/13 12:36:07;;;;;;;4.13;1.58;;;;;;;11.05;86.98;99306.59;4983242;28;20030;-67